Time;durP1;ratioP1;P1;durP2;ratioP2;P2;SDS_P1;SDS_P2;PMS_P1;PMS_P2;Temp;Humidity;BMP_temperature;BMP_pressure;BME280_temperature;BME280_humidity;BME280_pressure;Samples;Min_cycle;Max_cycle;Signal;HPM_P1;HPM_P2
2023/02/11 00:00:58;;;;;;;12.20;5.63;;;2.30;97.30;;;;;;5070080;28;20468;-84
2023/02/11 00:03:24;;;;;;;18.23;4.20;;;2.20;97.30;;;;;;5060339;28;20176;-83
2023/02/11 00:06:16;;;;;;;9.53;4.50;;;2.20;97.30;;;;;;5059764;28;20198;-84
2023/02/11 00:08:42;;;;;;;12.80;5.70;;;2.30;97.30;;;;;;5059891;28;20626;-83
2023/02/11 00:11:13;;;;;;;16.13;3.53;;;2.30;97.30;;;;;;5067755;28;20422;-84
2023/02/11 00:13:38;;;;;;;6.70;4.30;;;2.30;97.30;;;;;;5059339;28;20183;-84
2023/02/11 00:16:09;;;;;;;12.43;4.47;;;2.30;97.30;;;;;;5079782;28;20451;-84
2023/02/11 00:18:35;;;;;;;7.03;4.90;;;2.30;97.30;;;;;;5080158;28;20293;-84
2023/02/11 00:21:06;;;;;;;8.03;3.10;;;2.30;97.30;;;;;;5068251;28;20511;-83
2023/02/11 00:23:31;;;;;;;4.80;3.23;;;2.30;97.30;;;;;;5084905;28;20634;-84
2023/02/11 00:25:57;;;;;;;11.43;5.93;;;2.30;97.30;;;;;;5060992;28;20437;-84
2023/02/11 00:28:22;;;;;;;2.83;2.63;;;2.20;97.30;;;;;;5059110;28;20258;-84
2023/02/11 00:30:56;;;;;;;4.83;4.27;;;2.20;97.30;;;;;;5076671;28;20700;-84
2023/02/11 00:33:22;;;;;;;10.50;4.13;;;2.20;97.30;;;;;;5085499;28;20347;-84
2023/02/11 00:35:47;;;;;;;11.40;5.57;;;2.20;97.30;;;;;;5084748;28;20464;-84
2023/02/11 00:38:13;;;;;;;8.83;4.27;;;2.30;97.30;;;;;;5058470;28;20250;-84
2023/02/11 00:40:38;;;;;;;4.50;4.20;;;2.20;97.30;;;;;;5075440;28;20286;-83
2023/02/11 00:43:04;;;;;;;9.00;5.40;;;2.30;97.30;;;;;;5095843;28;20187;-84
2023/02/11 00:45:29;;;;;;;8.13;4.90;;;2.30;97.30;;;;;;5065355;28;20199;-84
2023/02/11 00:47:55;;;;;;;5.57;4.70;;;2.30;97.30;;;;;;5066559;28;20223;-85
2023/02/11 00:50:21;;;;;;;7.97;3.13;;;2.30;97.30;;;;;;5064571;28;20187;-84
2023/02/11 00:52:47;;;;;;;9.30;6.60;;;2.30;97.30;;;;;;5057800;28;20425;-83
2023/02/11 00:55:12;;;;;;;4.00;3.70;;;2.30;97.30;;;;;;5066832;28;20639;-84
2023/02/11 00:57:38;;;;;;;7.17;3.93;;;2.30;97.30;;;;;;5076043;28;20174;-83
2023/02/11 01:00:06;;;;;;;8.90;4.83;;;2.30;97.30;;;;;;5066736;28;20179;-84
2023/02/11 01:02:32;;;;;;;18.93;6.43;;;2.30;97.30;;;;;;5074842;28;20250;-84
2023/02/11 01:04:58;;;;;;;5.63;2.97;;;2.30;97.30;;;;;;5056318;28;21013;-84
2023/02/11 01:07:24;;;;;;;5.30;3.10;;;2.30;97.30;;;;;;5057540;28;20286;-83
2023/02/11 01:09:50;;;;;;;8.30;4.40;;;2.30;97.30;;;;;;5074181;28;20539;-84
2023/02/11 01:12:15;;;;;;;14.73;6.40;;;2.40;97.30;;;;;;5057979;28;20773;-84
2023/02/11 01:14:41;;;;;;;5.90;3.47;;;2.30;97.30;;;;;;5092215;28;20217;-84
2023/02/11 01:17:06;;;;;;;9.93;4.60;;;2.40;97.30;;;;;;5077873;28;20692;-84
2023/02/11 01:19:32;;;;;;;4.60;3.13;;;2.40;97.30;;;;;;5063013;28;20175;-84
2023/02/11 01:21:57;;;;;;;15.50;6.30;;;2.40;97.30;;;;;;5058321;28;20878;-83
2023/02/11 01:24:23;;;;;;;12.23;5.93;;;2.40;97.30;;;;;;5077875;28;20174;-84
2023/02/11 01:26:48;;;;;;;2.60;2.40;;;2.40;97.30;;;;;;5060124;28;20195;-83
2023/02/11 01:29:14;;;;;;;6.37;5.67;;;2.40;97.30;;;;;;5073191;28;20814;-84
2023/02/11 01:31:39;;;;;;;3.80;3.60;;;2.40;97.30;;;;;;5064978;28;20191;-84
2023/02/11 01:34:05;;;;;;;7.93;6.90;;;2.50;97.30;;;;;;5056538;28;20199;-85
2023/02/11 01:36:31;;;;;;;9.83;6.40;;;2.50;97.30;;;;;;5086765;28;20182;-83
2023/02/11 01:38:57;;;;;;;1.93;1.90;;;2.50;97.30;;;;;;5066618;28;20945;-84
2023/02/11 01:41:22;;;;;;;4.47;4.20;;;2.60;97.30;;;;;;5063827;28;20179;-84
2023/02/11 01:43:49;;;;;;;15.87;6.03;;;2.60;97.30;;;;;;5063925;28;20691;-82
2023/02/11 01:46:34;;;;;;;6.43;3.80;;;2.60;97.30;;;;;;5056272;28;20230;-84
2023/02/11 01:49:13;;;;;;;11.07;6.20;;;2.60;97.30;;;;;;5056691;28;20433;-84
2023/02/11 01:51:43;;;;;;;5.23;4.43;;;2.70;97.30;;;;;;5074989;28;20422;-84
2023/02/11 01:59:52;;;;;;;4.20;2.07;;;2.70;97.30;;;;;;5074818;28;20554;-83
2023/02/11 02:02:22;;;;;;;8.10;5.10;;;2.70;97.30;;;;;;5057299;28;20454;-83
2023/02/11 02:04:55;;;;;;;8.13;4.50;;;2.80;97.30;;;;;;5056858;28;20483;-84
2023/02/11 02:07:33;;;;;;;7.23;4.23;;;2.80;97.30;;;;;;5056651;28;20433;-83
2023/02/11 02:10:08;;;;;;;5.63;3.63;;;2.80;97.30;;;;;;5056959;28;20467;-84
2023/02/11 02:12:33;;;;;;;4.70;3.83;;;2.90;97.30;;;;;;5057010;28;20466;-84
2023/02/11 02:15:22;;;;;;;4.23;3.33;;;2.90;97.30;;;;;;5057896;28;20465;-83
2023/02/11 02:18:17;;;;;;;3.30;3.10;;;2.90;97.30;;;;;;5079200;28;20692;-84
2023/02/11 02:20:51;;;;;;;7.60;7.27;;;3.00;97.30;;;;;;5047148;28;20429;-84
2023/02/11 02:23:34;;;;;;;7.13;3.83;;;3.00;97.30;;;;;;5052471;28;20418;-84
2023/02/11 02:26:11;;;;;;;5.60;4.30;;;3.00;97.30;;;;;;5060306;28;20441;-83
2023/02/11 02:28:52;;;;;;;10.80;5.33;;;3.00;97.30;;;;;;5060809;28;20893;-83
2023/02/11 02:31:35;;;;;;;5.30;4.93;;;3.00;97.30;;;;;;5059639;28;20417;-83
2023/02/11 02:34:06;;;;;;;5.27;4.97;;;3.00;97.30;;;;;;5079292;28;20420;-83
2023/02/11 02:36:50;;;;;;;10.40;3.60;;;3.00;97.30;;;;;;5059966;28;20479;-84
2023/02/11 02:39:32;;;;;;;4.60;4.07;;;3.00;97.30;;;;;;5060530;28;20784;-83
2023/02/11 02:41:58;;;;;;;7.33;5.33;;;3.00;97.30;;;;;;5060865;28;20783;-84
2023/02/11 02:44:23;;;;;;;3.43;3.23;;;3.00;97.30;;;;;;5059922;28;20448;-84
2023/02/11 02:46:49;;;;;;;10.47;6.47;;;3.00;97.30;;;;;;5077531;28;20533;-84
2023/02/11 02:49:15;;;;;;;3.27;3.07;;;3.00;97.30;;;;;;5059982;28;20282;-84
2023/02/11 02:52:16;;;;;;;6.97;5.53;;;3.10;97.30;;;;;;5078574;28;20543;-83
2023/02/11 02:55:16;;;;;;;3.03;2.87;;;3.10;97.30;;;;;;5055667;28;20483;-84
2023/02/11 02:58:09;;;;;;;4.60;3.40;;;3.10;97.30;;;;;;5060456;28;20444;-83
2023/02/11 03:00:53;;;;;;;3.93;3.73;;;3.10;97.30;;;;;;5061384;28;20462;-84
2023/02/11 03:04:17;;;;;;;6.80;3.10;;;3.10;97.30;;;;;;5060935;28;20485;-84
2023/02/11 03:06:54;;;;;;;5.10;3.00;;;3.10;97.30;;;;;;5000565;28;20440;-84
2023/02/11 03:09:30;;;;;;;9.23;3.30;;;3.20;97.30;;;;;;5016814;28;20871;-84
2023/02/11 03:11:55;;;;;;;7.77;4.23;;;3.20;97.30;;;;;;5055106;28;20428;-84
2023/02/11 03:14:25;;;;;;;8.07;6.53;;;3.30;97.30;;;;;;5062382;28;20461;-83
2023/02/11 03:16:53;;;;;;;11.90;3.50;;;3.30;97.30;;;;;;5062222;28;20195;-84
2023/02/11 03:19:25;;;;;;;13.63;3.97;;;3.30;97.30;;;;;;5060823;28;20429;-83
2023/02/11 03:21:52;;;;;;;3.97;2.83;;;3.30;97.30;;;;;;5060900;28;20409;-84
2023/02/11 03:24:31;;;;;;;8.33;5.13;;;3.40;97.30;;;;;;5052878;28;20508;-83
2023/02/11 03:27:04;;;;;;;9.90;6.50;;;3.40;97.30;;;;;;5060739;28;20539;-83
2023/02/11 03:29:44;;;;;;;10.97;6.37;;;3.40;97.30;;;;;;5061934;28;20424;-85
2023/02/11 03:32:18;;;;;;;9.17;5.03;;;3.40;97.30;;;;;;5062105;28;20447;-83
2023/02/11 03:34:59;;;;;;;6.37;6.00;;;3.50;97.30;;;;;;5062200;28;20456;-84
2023/02/11 03:37:49;;;;;;;7.13;4.20;;;3.50;97.30;;;;;;5075239;28;20883;-84
2023/02/11 03:40:20;;;;;;;3.80;2.57;;;3.50;97.30;;;;;;5080295;28;20424;-84
2023/02/11 03:43:11;;;;;;;15.80;3.73;;;3.50;97.30;;;;;;5062548;28;20413;-84
2023/02/11 03:45:38;;;;;;;5.63;4.70;;;3.60;97.30;;;;;;5062664;28;20528;-84
2023/02/11 03:48:22;;;;;;;12.00;5.70;;;3.60;97.30;;;;;;5056316;28;20974;-83
2023/02/11 03:50:49;;;;;;;8.70;8.27;;;3.60;97.30;;;;;;5074854;28;20808;-84
2023/02/11 03:53:16;;;;;;;11.87;7.43;;;3.70;97.30;;;;;;5056401;28;20433;-84
2023/02/11 03:55:42;;;;;;;3.20;3.03;;;3.70;97.30;;;;;;5056109;28;20465;-83
2023/02/11 03:58:08;;;;;;;8.97;4.50;;;3.70;97.30;;;;;;5075409;28;20452;-83
2023/02/11 04:00:38;;;;;;;3.03;2.90;;;3.70;97.30;;;;;;5056668;28;20425;-84
2023/02/11 04:03:04;;;;;;;6.83;4.90;;;3.70;97.30;;;;;;5055854;28;20181;-83
2023/02/11 04:05:30;;;;;;;7.27;4.37;;;3.70;97.30;;;;;;5075630;28;20501;-84
2023/02/11 04:07:55;;;;;;;4.60;4.30;;;3.80;97.30;;;;;;5056348;28;20421;-83
2023/02/11 04:10:21;;;;;;;8.57;4.73;;;3.80;97.30;;;;;;5074448;28;20855;-84
2023/02/11 04:12:46;;;;;;;7.83;5.27;;;3.90;97.30;;;;;;5056204;28;20187;-84
2023/02/11 04:15:12;;;;;;;4.43;3.73;;;3.90;97.30;;;;;;5038960;28;20298;-84
2023/02/11 04:17:38;;;;;;;4.00;3.80;;;3.90;97.30;;;;;;5056780;28;20179;-84
2023/02/11 04:20:04;;;;;;;14.03;4.83;;;3.90;97.30;;;;;;5074037;28;20226;-84
2023/02/11 04:22:29;;;;;;;4.20;4.03;;;3.90;97.30;;;;;;5056411;28;20190;-84
2023/02/11 04:24:55;;;;;;;13.43;5.43;;;3.90;97.30;;;;;;5055359;28;20704;-83
2023/02/11 04:27:21;;;;;;;14.73;4.70;;;4.00;97.30;;;;;;5056012;28;20413;-84
2023/02/11 04:29:47;;;;;;;14.10;5.50;;;4.00;97.30;;;;;;5056258;28;20181;-84
2023/02/11 04:32:12;;;;;;;5.50;5.20;;;4.00;97.30;;;;;;5056632;28;20203;-83
2023/02/11 04:34:38;;;;;;;7.20;4.37;;;4.00;97.30;;;;;;5055660;28;20198;-84
2023/02/11 04:37:04;;;;;;;13.70;5.33;;;4.10;97.30;;;;;;5055669;28;20620;-84
2023/02/11 04:39:29;;;;;;;5.30;4.10;;;4.10;97.30;;;;;;5055739;28;20266;-83
2023/02/11 04:41:54;;;;;;;3.77;3.40;;;4.10;97.30;;;;;;5073579;28;20861;-83
2023/02/11 04:44:20;;;;;;;10.70;3.80;;;4.10;97.30;;;;;;5055643;28;20207;-83
2023/02/11 04:46:46;;;;;;;17.33;5.53;;;4.10;97.30;;;;;;5055167;28;20222;-84
2023/02/11 04:49:13;;;;;;;3.93;3.53;;;4.10;97.30;;;;;;5055167;28;20222;-84
2023/02/11 04:51:38;;;;;;;3.80;3.60;;;4.10;97.30;;;;;;5056078;28;20183;-83
2023/02/11 04:54:04;;;;;;;11.43;5.07;;;4.20;97.30;;;;;;5055862;28;20471;-84
2023/02/11 04:56:29;;;;;;;11.87;5.50;;;4.20;97.30;;;;;;5055412;28;20293;-84
2023/02/11 04:58:55;;;;;;;19.57;5.17;;;4.20;97.30;;;;;;5055063;28;20182;-84
2023/02/11 05:01:20;;;;;;;10.37;5.43;;;4.20;97.30;;;;;;5073189;28;20216;-84
2023/02/11 05:03:46;;;;;;;18.93;8.40;;;4.20;97.30;;;;;;5073638;28;20539;-84
2023/02/11 05:06:11;;;;;;;8.53;5.47;;;4.20;97.30;;;;;;5073484;28;20290;-83
2023/02/11 05:08:37;;;;;;;9.13;4.53;;;4.20;97.30;;;;;;5056015;28;20680;-83
2023/02/11 05:11:03;;;;;;;5.23;4.93;;;4.20;97.30;;;;;;5071071;28;20232;-84
2023/02/11 05:13:29;;;;;;;6.70;4.40;;;4.20;97.30;;;;;;5055058;28;20187;-84
2023/02/11 05:15:54;;;;;;;9.83;6.40;;;4.20;97.30;;;;;;5073876;28;20399;-84
2023/02/11 05:18:20;;;;;;;3.33;3.13;;;4.30;97.30;;;;;;5074153;28;20179;-84
2023/02/11 05:20:46;;;;;;;9.40;5.10;;;4.30;97.30;;;;;;5054959;28;20206;-83
2023/02/11 05:23:12;;;;;;;4.23;3.97;;;4.30;97.30;;;;;;5054972;28;20444;-85
2023/02/11 05:25:37;;;;;;;5.40;3.70;;;4.20;97.30;;;;;;5073283;28;20332;-84
2023/02/11 05:28:03;;;;;;;5.60;3.50;;;4.20;97.30;;;;;;5054937;28;20250;-84
2023/02/11 05:30:29;;;;;;;8.80;5.60;;;4.20;97.30;;;;;;5055445;28;20251;-84
2023/02/11 05:32:55;;;;;;;12.23;4.37;;;4.20;97.30;;;;;;5054710;28;20475;-83
2023/02/11 05:35:21;;;;;;;4.93;4.40;;;4.30;97.30;;;;;;5054130;28;20533;-84
2023/02/11 05:37:46;;;;;;;10.90;7.10;;;4.20;97.30;;;;;;5046120;28;20182;-84
2023/02/11 05:40:12;;;;;;;5.50;3.47;;;4.20;97.30;;;;;;5054284;28;20535;-84
2023/02/11 05:42:38;;;;;;;15.77;5.10;;;4.20;97.30;;;;;;5055129;28;20641;-84
2023/02/11 05:45:04;;;;;;;5.47;3.90;;;4.30;97.30;;;;;;5058735;28;20455;-84
2023/02/11 05:47:29;;;;;;;6.57;3.97;;;4.20;97.30;;;;;;5049667;28;20229;-84
2023/02/11 05:49:55;;;;;;;3.77;3.20;;;4.30;97.30;;;;;;5053294;28;20183;-85
2023/02/11 05:52:21;;;;;;;7.37;5.67;;;4.30;97.30;;;;;;5044272;28;20187;-84
2023/02/11 05:54:47;;;;;;;5.53;5.13;;;4.20;97.30;;;;;;5066931;28;20263;-84
2023/02/11 05:57:12;;;;;;;8.70;6.37;;;4.20;97.30;;;;;;5083294;28;20474;-84
2023/02/11 05:59:38;;;;;;;6.73;5.90;;;4.20;97.30;;;;;;5081737;28;20669;-85
2023/02/11 06:02:03;;;;;;;9.83;4.90;;;4.30;97.30;;;;;;5047646;28;20180;-84
2023/02/11 06:04:29;;;;;;;7.90;4.50;;;4.20;97.30;;;;;;5067748;28;20180;-84
2023/02/11 06:06:55;;;;;;;9.53;3.00;;;4.20;97.30;;;;;;5053695;28;20211;-84
2023/02/11 06:09:21;;;;;;;5.47;3.40;;;4.20;97.30;;;;;;5062307;28;20175;-83
2023/02/11 06:11:46;;;;;;;7.30;5.80;;;4.20;97.30;;;;;;5066264;28;20988;-84
2023/02/11 06:14:13;;;;;;;6.17;5.10;;;4.20;97.30;;;;;;5076488;28;20207;-84
2023/02/11 06:16:38;;;;;;;4.70;3.90;;;4.20;97.30;;;;;;5065288;28;20192;-84
2023/02/11 06:19:04;;;;;;;13.07;7.23;;;4.20;97.30;;;;;;5079404;28;20994;-83
2023/02/11 06:21:29;;;;;;;11.53;6.87;;;4.20;97.30;;;;;;5060120;28;20218;-83
2023/02/11 06:23:54;;;;;;;6.37;6.00;;;4.20;97.30;;;;;;5069764;28;20175;-84
2023/02/11 06:26:21;;;;;;;6.80;4.13;;;4.20;97.30;;;;;;5081887;28;20711;-84
2023/02/11 06:28:47;;;;;;;6.60;2.97;;;4.20;97.30;;;;;;5080603;28;20182;-83
2023/02/11 06:31:13;;;;;;;10.47;5.87;;;4.20;97.30;;;;;;5053469;28;20422;-83
2023/02/11 06:33:39;;;;;;;22.67;7.27;;;4.30;97.30;;;;;;5052259;28;20565;-84
2023/02/11 06:36:12;;;;;;;9.90;6.00;;;4.30;97.30;;;;;;5051996;28;20549;-85
2023/02/11 06:38:37;;;;;;;12.07;6.10;;;4.30;97.30;;;;;;5072469;28;20175;-83
2023/02/11 06:41:03;;;;;;;11.13;6.10;;;4.30;97.30;;;;;;5052471;28;20424;-83
2023/02/11 06:43:28;;;;;;;7.13;5.37;;;4.30;97.30;;;;;;5049385;28;20180;-84
2023/02/11 06:45:54;;;;;;;8.10;4.40;;;4.30;97.30;;;;;;5054106;28;20227;-83
2023/02/11 06:48:21;;;;;;;13.07;6.27;;;4.40;97.30;;;;;;5053724;28;20195;-84
2023/02/11 06:50:46;;;;;;;12.53;4.70;;;4.40;97.30;;;;;;5072565;28;20843;-83
2023/02/11 06:53:12;;;;;;;14.30;7.40;;;4.40;97.30;;;;;;5043173;28;20457;-83
2023/02/11 06:55:38;;;;;;;13.50;7.07;;;4.40;97.30;;;;;;5037468;28;20210;-84
2023/02/11 06:58:03;;;;;;;13.03;5.97;;;4.40;97.30;;;;;;5032482;28;20530;-83
2023/02/11 07:00:31;;;;;;;36.53;5.57;;;4.40;97.30;;;;;;5036892;28;20183;-83
2023/02/11 07:02:57;;;;;;;4.80;3.03;;;4.40;97.30;;;;;;5036729;28;20182;-83
2023/02/11 07:05:22;;;;;;;3.73;3.37;;;4.40;97.30;;;;;;5059922;28;20449;-84
2023/02/11 07:07:48;;;;;;;12.70;4.90;;;4.50;97.30;;;;;;5034928;28;20185;-83
2023/02/11 07:10:13;;;;;;;7.03;6.23;;;4.50;97.30;;;;;;5034730;28;20364;-84
2023/02/11 07:12:46;;;;;;;9.93;5.60;;;4.50;97.30;;;;;;5032558;28;20191;-83
2023/02/11 07:15:12;;;;;;;6.63;2.53;;;4.50;97.30;;;;;;5059517;28;20265;-84
2023/02/11 07:17:37;;;;;;;4.70;4.27;;;4.50;97.30;;;;;;5045941;28;20471;-84
2023/02/11 07:20:03;;;;;;;3.73;3.57;;;4.50;97.30;;;;;;5062193;28;20194;-82
2023/02/11 07:22:29;;;;;;;7.93;6.50;;;4.50;97.30;;;;;;5062543;28;20184;-83
2023/02/11 07:24:54;;;;;;;6.40;4.90;;;4.60;97.30;;;;;;5045150;28;20194;-83
2023/02/11 07:27:20;;;;;;;12.73;4.73;;;4.60;97.30;;;;;;5066751;28;20206;-84
2023/02/11 07:29:45;;;;;;;10.43;7.20;;;4.60;97.30;;;;;;5054755;28;20183;-82
2023/02/11 07:32:12;;;;;;;11.80;8.10;;;4.60;97.30;;;;;;5042901;28;20192;-83
2023/02/11 07:34:37;;;;;;;15.50;7.47;;;4.60;97.30;;;;;;5041798;28;20200;-83
2023/02/11 07:37:03;;;;;;;7.70;4.60;;;4.70;97.30;;;;;;5041725;28;20453;-83
2023/02/11 07:39:28;;;;;;;4.90;3.30;;;4.70;97.30;;;;;;5048506;28;20171;-83
2023/02/11 07:41:54;;;;;;;5.10;4.80;;;4.70;97.30;;;;;;5072567;28;20171;-84
2023/02/11 07:44:19;;;;;;;8.13;6.00;;;4.70;97.30;;;;;;5032315;28;20207;-84
2023/02/11 07:46:46;;;;;;;6.00;4.60;;;4.70;97.30;;;;;;5055147;28;20650;-83
2023/02/11 07:49:12;;;;;;;10.00;4.50;;;4.70;97.30;;;;;;5078117;28;20232;-83
2023/02/11 07:51:37;;;;;;;11.23;5.83;;;4.70;97.30;;;;;;5065383;28;20414;-83
2023/02/11 07:54:03;;;;;;;4.73;4.33;;;4.70;97.30;;;;;;5057337;28;20179;-85
2023/02/11 07:56:29;;;;;;;9.27;4.00;;;4.80;97.30;;;;;;5061443;28;20210;-83
2023/02/11 07:58:58;;;;;;;3.67;2.80;;;4.80;97.30;;;;;;5088102;28;20231;-84
2023/02/11 08:01:27;;;;;;;12.00;7.60;;;4.80;97.30;;;;;;5059135;28;20940;-84
2023/02/11 08:03:53;;;;;;;4.80;4.50;;;4.90;97.30;;;;;;5082798;28;20412;-84
2023/02/11 08:06:21;;;;;;;11.53;5.70;;;4.90;97.30;;;;;;5059984;28;20448;-84
2023/02/11 08:08:46;;;;;;;14.13;7.27;;;4.90;97.30;;;;;;5062462;28;20444;-83
2023/02/11 08:11:15;;;;;;;8.57;5.33;;;4.90;97.30;;;;;;5057732;28;20414;-84
2023/02/11 08:13:41;;;;;;;9.53;5.73;;;4.90;97.30;;;;;;5085876;28;20502;-85
2023/02/11 08:16:07;;;;;;;11.80;8.30;;;4.90;97.30;;;;;;5059449;28;20461;-84
2023/02/11 08:18:34;;;;;;;4.60;4.30;;;4.90;97.30;;;;;;5056789;28;20413;-85
2023/02/11 08:21:04;;;;;;;10.00;5.90;;;4.90;97.30;;;;;;5055462;28;20426;-84
2023/02/11 08:23:30;;;;;;;5.87;4.67;;;4.90;97.30;;;;;;5053862;28;20489;-85
2023/02/11 08:26:00;;;;;;;11.83;6.77;;;4.90;97.30;;;;;;5054789;28;20576;-84
2023/02/11 08:28:26;;;;;;;6.17;5.73;;;5.00;97.30;;;;;;5067978;28;20189;-83
2023/02/11 08:30:51;;;;;;;11.83;4.17;;;5.00;97.30;;;;;;5053179;28;20908;-84
2023/02/11 08:33:17;;;;;;;8.30;5.97;;;5.00;97.30;;;;;;5056988;28;20186;-83
2023/02/11 08:35:42;;;;;;;11.23;6.27;;;5.10;97.30;;;;;;5057834;28;20235;-84
2023/02/11 08:38:08;;;;;;;11.77;6.03;;;5.10;97.30;;;;;;5056075;28;20175;-83
2023/02/11 08:40:33;;;;;;;8.33;5.63;;;5.10;97.30;;;;;;5057482;28;20255;-85
2023/02/11 08:42:59;;;;;;;7.57;5.90;;;5.10;97.30;;;;;;5058727;28;20302;-83
2023/02/11 08:45:24;;;;;;;4.77;4.17;;;5.10;97.30;;;;;;5062041;28;20198;-83
2023/02/11 08:47:50;;;;;;;17.63;6.63;;;5.10;97.30;;;;;;5045738;28;20234;-82
2023/02/11 08:50:15;;;;;;;10.27;5.90;;;5.10;97.30;;;;;;5036818;28;20184;-80
2023/02/11 08:52:41;;;;;;;6.17;5.83;;;5.20;97.30;;;;;;5036876;28;20602;-81
2023/02/11 08:55:07;;;;;;;7.53;6.30;;;5.20;97.30;;;;;;5033176;28;20212;-82
2023/02/11 08:57:32;;;;;;;19.93;7.57;;;5.20;97.30;;;;;;5052987;28;20468;-81
2023/02/11 08:59:58;;;;;;;4.63;4.20;;;5.20;97.30;;;;;;5035029;28;20187;-81
2023/02/11 09:02:23;;;;;;;4.47;3.20;;;5.20;97.30;;;;;;5067895;28;20182;-83
2023/02/11 09:04:49;;;;;;;15.87;7.93;;;5.20;97.30;;;;;;5051074;28;20178;-84
2023/02/11 09:07:14;;;;;;;19.57;5.20;;;5.30;97.30;;;;;;5049435;28;20352;-80
2023/02/11 09:09:40;;;;;;;4.47;3.57;;;5.40;97.30;;;;;;5044550;28;20650;-81
2023/02/11 09:12:05;;;;;;;12.20;6.33;;;5.40;97.30;;;;;;5044349;28;20192;-82
2023/02/11 09:14:31;;;;;;;6.00;5.70;;;5.60;97.30;;;;;;5053937;28;20294;-83
2023/02/11 09:16:56;;;;;;;8.37;4.37;;;5.60;97.30;;;;;;5042663;28;20639;-82
2023/02/11 09:19:22;;;;;;;6.77;4.70;;;5.60;97.30;;;;;;5041553;28;20179;-82
2023/02/11 09:21:48;;;;;;;4.73;3.53;;;5.60;97.30;;;;;;5043977;28;20183;-81
2023/02/11 09:24:14;;;;;;;11.33;4.30;;;5.60;97.30;;;;;;5068416;28;20818;-82
2023/02/11 09:26:41;;;;;;;11.43;6.77;;;5.70;97.30;;;;;;5075617;28;20225;-84
2023/02/11 09:29:06;;;;;;;6.10;3.93;;;5.70;97.30;;;;;;5071404;28;20269;-81
2023/02/11 09:31:33;;;;;;;11.07;5.80;;;5.70;97.30;;;;;;5040015;28;20450;-81
2023/02/11 09:34:04;;;;;;;6.27;4.50;;;5.80;97.30;;;;;;5038791;28;20184;-80
2023/02/11 09:36:33;;;;;;;7.40;5.53;;;5.80;97.30;;;;;;5033037;28;20443;-81
2023/02/11 09:39:00;;;;;;;8.20;6.80;;;5.80;97.30;;;;;;5062225;28;20456;-83
2023/02/11 09:41:41;;;;;;;7.07;5.30;;;5.80;97.30;;;;;;5038949;28;20410;-81
2023/02/11 09:44:17;;;;;;;4.80;4.20;;;5.80;97.30;;;;;;5034976;28;20418;-79
2023/02/11 09:46:52;;;;;;;13.87;7.30;;;5.80;97.30;;;;;;5059785;28;20471;-80
2023/02/11 09:49:23;;;;;;;18.03;6.67;;;5.90;97.30;;;;;;5061128;28;20416;-81
2023/02/11 09:51:55;;;;;;;10.30;4.03;;;6.00;97.30;;;;;;5069143;28;20762;-80
2023/02/11 09:54:48;;;;;;;8.03;4.70;;;6.00;97.30;;;;;;5067984;28;20444;-78
2023/02/11 09:57:13;;;;;;;5.53;3.67;;;6.10;97.30;;;;;;5059338;28;20413;-79
2023/02/11 09:59:39;;;;;;;7.07;6.67;;;6.10;97.30;;;;;;5059556;28;20574;-81
2023/02/11 10:02:21;;;;;;;15.13;4.47;;;6.10;97.30;;;;;;5058667;28;20184;-80
2023/02/11 10:04:54;;;;;;;10.67;6.47;;;6.10;97.30;;;;;;5048923;28;20657;-81
2023/02/11 10:07:37;;;;;;;7.70;5.97;;;6.10;97.30;;;;;;5077072;28;20459;-81
2023/02/11 10:10:43;;;;;;;30.57;8.50;;;6.10;97.30;;;;;;5057239;28;20425;-80
2023/02/11 10:13:09;;;;;;;9.47;5.27;;;6.20;97.30;;;;;;5055222;28;20567;-80
2023/02/11 10:16:01;;;;;;;4.20;3.50;;;6.30;97.30;;;;;;5059240;28;20508;-83
2023/02/11 10:19:06;;;;;;;9.23;4.03;;;6.30;97.30;;;;;;5063138;28;20319;-84
2023/02/11 10:21:40;;;;;;;10.40;7.50;;;6.40;97.30;;;;;;5055713;28;20436;-84
2023/02/11 10:24:11;;;;;;;10.70;6.73;;;6.50;97.30;;;;;;5055097;28;20527;-84
2023/02/11 10:26:38;;;;;;;10.70;6.13;;;6.50;97.30;;;;;;5047779;28;20434;-83
2023/02/11 10:29:14;;;;;;;5.20;3.37;;;6.50;97.30;;;;;;5056784;28;20429;-83
2023/02/11 10:31:43;;;;;;;15.27;5.40;;;6.50;97.30;;;;;;5071888;28;20863;-85
2023/02/11 10:34:10;;;;;;;8.07;4.67;;;6.60;97.30;;;;;;5059659;28;20546;-84
2023/02/11 10:36:39;;;;;;;9.07;4.60;;;6.60;97.30;;;;;;5075921;28;20499;-85
2023/02/11 10:39:22;;;;;;;10.57;5.93;;;6.70;97.30;;;;;;5059328;28;20811;-84
2023/02/11 10:41:56;;;;;;;4.97;3.97;;;6.70;97.30;;;;;;5051590;28;20450;-84
2023/02/11 10:44:32;;;;;;;4.40;2.93;;;6.70;97.30;;;;;;5074975;28;20457;-82
2023/02/11 10:47:02;;;;;;;6.10;4.10;;;6.70;97.30;;;;;;5073514;28;20452;-83
2023/02/11 10:49:39;;;;;;;6.47;6.10;;;6.60;97.30;;;;;;5048176;28;20498;-84
2023/02/11 10:52:22;;;;;;;16.00;5.57;;;6.60;97.30;;;;;;5059902;28;20428;-82
2023/02/11 10:54:58;;;;;;;7.77;5.87;;;6.70;97.30;;;;;;5061553;28;20456;-83
2023/02/11 10:57:32;;;;;;;6.13;4.73;;;6.60;97.30;;;;;;5057656;28;20488;-83
2023/02/11 11:00:04;;;;;;;4.57;4.27;;;6.70;97.30;;;;;;5062993;28;20464;-84
2023/02/11 11:02:34;;;;;;;6.67;4.57;;;6.70;97.30;;;;;;5062690;28;20429;-81
2023/02/11 11:05:13;;;;;;;8.80;4.60;;;6.70;97.30;;;;;;5055954;28;20434;-83
2023/02/11 11:07:49;;;;;;;18.63;8.90;;;6.70;97.30;;;;;;5053509;28;20467;-81
2023/02/11 11:10:35;;;;;;;9.73;4.03;;;6.70;97.30;;;;;;5056433;28;20425;-82
2023/02/11 11:13:01;;;;;;;8.03;5.10;;;6.70;97.30;;;;;;5058073;28;20429;-80
2023/02/11 11:15:29;;;;;;;9.33;4.30;;;6.60;97.30;;;;;;5061026;28;20526;-81
2023/02/11 11:18:17;;;;;;;10.10;5.40;;;6.60;97.30;;;;;;5078914;28;20950;-81
2023/02/11 11:21:20;;;;;;;5.63;3.87;;;6.70;97.30;;;;;;5051093;28;20429;-84
2023/02/11 11:23:53;;;;;;;9.10;4.47;;;6.70;97.30;;;;;;5056645;28;20425;-84
2023/02/11 11:26:19;;;;;;;11.90;5.77;;;6.70;97.30;;;;;;5050095;28;20503;-84
2023/02/11 11:28:48;;;;;;;7.47;5.90;;;6.70;97.30;;;;;;5052828;28;20524;-84
2023/02/11 11:31:21;;;;;;;7.00;4.83;;;6.70;97.30;;;;;;5053756;28;20429;-84
2023/02/11 11:33:49;;;;;;;3.63;3.20;;;6.70;97.30;;;;;;5053820;28;20429;-85
2023/02/11 11:36:20;;;;;;;9.43;3.33;;;6.70;97.30;;;;;;5052164;28;20473;-85
2023/02/11 11:38:56;;;;;;;11.70;8.20;;;6.70;97.30;;;;;;5078821;28;20496;-83
2023/02/11 11:41:33;;;;;;;4.23;3.40;;;6.70;97.30;;;;;;5061642;28;20425;-85
2023/02/11 11:44:38;;;;;;;13.07;8.67;;;6.70;97.30;;;;;;5045827;28;20551;-85
2023/02/11 11:47:10;;;;;;;14.30;8.73;;;6.80;97.30;;;;;;5048336;28;20979;-85
2023/02/11 11:49:50;;;;;;;15.33;7.60;;;6.80;97.30;;;;;;5053299;28;20421;-85
2023/02/11 11:52:22;;;;;;;8.33;6.13;;;6.80;97.30;;;;;;5050382;28;20476;-83
2023/02/11 11:54:57;;;;;;;9.00;6.13;;;6.80;97.30;;;;;;5053946;28;20461;-85
2023/02/11 11:57:29;;;;;;;12.10;6.87;;;6.80;97.30;;;;;;5053755;28;20417;-85
2023/02/11 11:59:57;;;;;;;13.57;4.77;;;6.80;97.30;;;;;;5077353;28;20838;-86
2023/02/11 12:02:38;;;;;;;8.30;7.10;;;6.80;97.30;;;;;;5072312;28;20420;-85
2023/02/11 12:05:13;;;;;;;27.67;9.43;;;6.80;97.30;;;;;;5060997;28;20867;-84
2023/02/11 12:08:20;;;;;;;7.87;7.37;;;6.80;97.30;;;;;;5065682;28;20416;-85
2023/02/11 12:11:06;;;;;;;4.70;4.40;;;6.80;97.30;;;;;;5045851;28;20471;-84
2023/02/11 12:13:48;;;;;;;5.97;4.97;;;6.80;97.30;;;;;;5053626;28;20421;-85
2023/02/11 12:16:29;;;;;;;6.50;4.67;;;6.80;97.30;;;;;;5053276;28;21040;-85
2023/02/11 12:19:26;;;;;;;12.53;6.10;;;6.80;97.30;;;;;;5054041;28;20409;-85
2023/02/11 12:22:01;;;;;;;4.97;4.63;;;6.80;97.30;;;;;;5046673;28;20856;-85
2023/02/11 12:24:47;;;;;;;9.90;6.50;;;6.80;97.30;;;;;;5053310;28;20413;-85
2023/02/11 12:27:21;;;;;;;9.93;4.50;;;6.90;97.30;;;;;;5053250;28;20448;-85
2023/02/11 12:29:54;;;;;;;13.07;6.97;;;6.90;97.30;;;;;;5045844;28;20429;-85
2023/02/11 12:32:50;;;;;;;3.77;3.57;;;6.90;97.30;;;;;;5052851;28;20444;-84
2023/02/11 12:35:43;;;;;;;10.30;6.40;;;6.80;97.30;;;;;;5053167;28;20465;-85
2023/02/11 12:38:14;;;;;;;6.57;6.17;;;6.80;97.30;;;;;;5053809;28;20524;-84
2023/02/11 12:40:59;;;;;;;6.63;3.63;;;6.80;97.30;;;;;;5052786;28;20419;-85
2023/02/11 12:43:35;;;;;;;9.70;4.93;;;6.80;97.30;;;;;;5072237;28;20421;-84
2023/02/11 12:46:31;;;;;;;9.80;6.47;;;6.80;97.30;;;;;;5053667;28;20465;-86
2023/02/11 12:49:21;;;;;;;4.87;3.97;;;6.80;97.30;;;;;;5034381;28;20943;-85
2023/02/11 12:52:18;;;;;;;6.73;3.80;;;6.80;97.30;;;;;;5049619;28;20488;-85
2023/02/11 12:55:00;;;;;;;14.33;7.67;;;6.80;97.30;;;;;;5037064;28;20458;-85
2023/02/11 12:57:29;;;;;;;24.13;5.60;;;6.80;97.30;;;;;;5054406;28;20418;-85
2023/02/11 13:00:23;;;;;;;5.53;3.57;;;6.80;97.30;;;;;;5062212;28;20500;-85
2023/02/11 13:03:08;;;;;;;7.80;5.47;;;6.80;97.30;;;;;;5044603;28;20794;-84
2023/02/11 13:05:48;;;;;;;11.03;5.40;;;6.80;97.30;;;;;;5052638;28;20440;-84
2023/02/11 13:08:25;;;;;;;10.43;4.40;;;6.80;97.30;;;;;;5054619;28;20796;-85
2023/02/11 13:11:01;;;;;;;7.37;4.63;;;6.80;97.30;;;;;;5049884;28;20429;-84
2023/02/11 13:13:36;;;;;;;11.00;5.73;;;6.80;97.30;;;;;;5069548;28;20428;-84
2023/02/11 13:16:07;;;;;;;14.37;4.67;;;6.70;97.30;;;;;;5054179;28;20571;-84
2023/02/11 13:18:44;;;;;;;9.57;7.53;;;6.80;97.30;;;;;;5053937;28;21148;-85